Ensenada, Argentina
Current Conditions -  °F | °C
As of 5:00 PM on Monday 26 Jan 2015 (Local Time) from SABE Reporting Station
Broken Clouds Broken Clouds  
Wind Chill: 88°   Ceiling: 20000
Heat Index: 93°   Visibility: 6mi
Dew Point: 70°   Wind: 9mph
Humidity: 55%   Direction: 360°N
Pressure: 29.74"   Gusts: NA
Location:  34.85°S, 57.92°W
Report Text: SABE 262000Z 36008KT 9999 SCT030 BKN200 31/21 Q1007
Loading
Personal Weather Stations






























Interactive Weather Map New forecast layout! Learn more

10-Day Weather Forecast

Advertisements
Track Severe Weather on mobile